Terminal Aerodrome Forecast
Issued by NWS

Home | Current Version | Previous Version | Text Only | Print | Product List | Glossary Off
Versions: 1 2 3 4 5 6 7 8 9 10 11 12 13 14 15 16

000
FTUS43 KGRB 230520
TAFAUW
TAF
KAUW 230520Z 2306/2406 30003KT P6SM SCT070 BKN100
      TEMPO 2306/2307 -SHRA BKN035
     FM230700 VRB03KT 6SM BR SCT070 BKN100
      TEMPO 2309/2311 1SM BR SCT003
     FM231200 28007KT P6SM SCT090
     FM231600 29012G20KT P6SM SCT045
     FM240000 30007KT P6SM SCT050
     FM240400 30006KT P6SM SCT070=

USA.gov is the U.S. government's official web portal to all federal, state and local government web resources and services.